createdAt,value
2019-01-12T00:01:32.058Z,73.92
2019-01-12T00:04:01.931Z,74.10
2019-01-12T00:06:31.870Z,74.19
2019-01-12T00:09:01.748Z,74.43
2019-01-12T00:11:31.951Z,73.71
2019-01-12T00:14:01.887Z,72.86
2019-01-12T00:16:32.246Z,73.89
2019-01-12T00:19:02.960Z,72.76
2019-01-12T00:21:33.428Z,73.67
2019-01-12T00:24:06.437Z,74.61
2019-01-12T00:26:36.614Z,74.05
2019-01-12T00:29:06.607Z,74.94
2019-01-12T00:31:36.558Z,74.63
2019-01-12T00:34:07.230Z,73.54
2019-01-12T00:36:37.371Z,72.90
2019-01-12T00:39:09.014Z,74.33
2019-01-12T00:41:38.906Z,73.17
2019-01-12T00:44:08.861Z,73.62
2019-01-12T00:46:39.038Z,74.65
2019-01-12T00:49:09.215Z,73.82
2019-01-12T00:51:39.297Z,73.65
2019-01-12T00:54:09.278Z,74.73
2019-01-12T00:56:39.441Z,74.53
2019-01-12T00:59:09.997Z,73.93
2019-01-12T01:01:39.951Z,73.08
2019-01-12T01:04:09.926Z,72.26
2019-01-12T01:06:43.074Z,73.71
2019-01-12T01:09:13.447Z,72.91
2019-01-12T01:11:47.201Z,73.44
2019-01-12T01:14:24.183Z,74.25
2019-01-12T01:16:59.339Z,73.88
2019-01-12T01:19:30.162Z,73.56
2019-01-12T01:22:00.332Z,74.20
2019-01-12T01:24:30.272Z,73.55
2019-01-12T01:27:00.473Z,72.78
2019-01-12T01:29:30.452Z,72.10
2019-01-12T01:32:00.501Z,73.23
2019-01-12T01:34:30.422Z,73.21
2019-01-12T01:37:00.301Z,72.24
2019-01-12T01:39:30.563Z,72.94
2019-01-12T01:42:00.515Z,72.98
2019-01-12T01:44:40.015Z,72.20
2019-01-12T01:47:19.334Z,73.88
2019-01-12T01:49:57.803Z,74.20
2019-01-12T01:52:30.954Z,73.01
2019-01-12T01:55:16.475Z,73.79
2019-01-12T01:57:46.395Z,73.00
2019-01-12T02:00:19.016Z,72.08
2019-01-12T02:02:51.944Z,72.31
2019-01-12T02:05:21.946Z,73.46
2019-01-12T02:07:51.941Z,72.05
2019-01-12T02:10:23.491Z,72.29
2019-01-12T02:12:53.380Z,71.85
2019-01-12T02:15:24.051Z,73.38
2019-01-12T02:17:53.941Z,72.00
2019-01-12T02:20:24.145Z,72.27
2019-01-12T02:22:54.004Z,71.32
2019-01-12T02:25:24.218Z,73.59
2019-01-12T02:27:54.461Z,72.21
2019-01-12T02:30:25.859Z,72.11
2019-01-12T02:32:56.412Z,71.64
2019-01-12T02:35:27.040Z,72.74
2019-01-12T02:37:57.089Z,71.27
2019-01-12T02:40:27.056Z,71.14
2019-01-12T02:42:57.045Z,70.55
2019-01-12T02:45:27.012Z,71.05
2019-01-12T02:47:57.130Z,71.26
2019-01-12T02:50:27.021Z,70.45
2019-01-12T02:52:56.914Z,69.87
2019-01-12T02:55:26.790Z,71.78
2019-01-12T02:57:56.683Z,71.04
2019-01-12T03:00:26.738Z,70.29
2019-01-12T03:02:56.661Z,71.22
2019-01-12T03:05:26.543Z,71.31
2019-01-12T03:07:56.500Z,71.15
2019-01-12T03:10:26.606Z,70.91
2019-01-12T03:12:56.512Z,71.03
2019-01-12T03:15:26.388Z,71.44
2019-01-12T03:17:56.343Z,70.13
2019-01-12T03:20:26.445Z,70.25
2019-01-12T03:22:56.315Z,69.32
2019-01-12T03:25:26.555Z,68.79
2019-01-12T03:27:56.679Z,70.48
2019-01-12T03:30:26.592Z,70.18
2019-01-12T03:32:56.511Z,68.92
2019-01-12T03:35:26.390Z,67.99
2019-01-12T03:37:56.607Z,68.36
2019-01-12T03:40:26.659Z,68.93
2019-01-12T03:42:56.780Z,68.36
2019-01-12T03:45:26.694Z,69.64
2019-01-12T03:47:56.587Z,69.90
2019-01-12T03:50:26.517Z,69.07
2019-01-12T03:52:56.419Z,71.22
2019-01-12T03:55:26.385Z,69.61
2019-01-12T03:57:56.293Z,69.94
2019-01-12T04:00:26.627Z,71.89
2019-01-12T04:02:56.549Z,70.50
2019-01-12T04:05:26.511Z,69.21
2019-01-12T04:07:56.626Z,69.38
2019-01-12T04:10:26.764Z,70.54
2019-01-12T04:12:56.868Z,68.91
2019-01-12T04:15:26.801Z,69.00
2019-01-12T04:17:56.702Z,68.48
2019-01-12T04:20:26.594Z,69.18
2019-01-12T04:22:56.762Z,69.31
2019-01-12T04:25:33.711Z,70.57
2019-01-12T04:27:58.522Z,69.15
2019-01-12T04:30:28.548Z,69.17
2019-01-12T04:32:58.425Z,70.11
2019-01-12T04:35:28.335Z,69.84
2019-01-12T04:37:58.467Z,68.77
2019-01-12T04:40:28.685Z,68.31
2019-01-12T04:42:58.908Z,68.81
2019-01-12T04:45:29.034Z,69.65
2019-01-12T04:47:59.166Z,69.54
2019-01-12T04:50:29.087Z,69.08
2019-01-12T04:52:59.056Z,69.91
2019-01-12T04:55:29.053Z,69.22
2019-01-12T04:57:59.219Z,68.49
2019-01-12T05:00:29.107Z,68.34
2019-01-12T05:02:59.257Z,68.91
2019-01-12T05:05:29.152Z,68.20
2019-01-12T05:07:59.081Z,67.63
2019-01-12T05:10:29.092Z,68.18
2019-01-12T05:12:58.996Z,68.30
2019-01-12T05:15:29.140Z,67.77
2019-01-12T05:17:59.108Z,68.39
2019-01-12T05:20:28.971Z,67.64
2019-01-12T05:22:58.872Z,67.57
2019-01-12T05:25:28.730Z,68.84
2019-01-12T05:27:58.622Z,67.58
2019-01-12T05:30:28.565Z,67.64
2019-01-12T05:32:58.450Z,66.36
2019-01-12T05:35:28.514Z,66.44
2019-01-12T05:37:58.756Z,67.56
2019-01-12T05:40:28.640Z,66.02
2019-01-12T05:42:58.783Z,66.30
2019-01-12T05:45:28.940Z,67.46
2019-01-12T05:47:59.170Z,67.84
2019-01-12T05:50:29.046Z,67.09
2019-01-12T05:52:59.004Z,67.37
2019-01-12T05:55:28.873Z,66.51
2019-01-12T05:57:58.803Z,67.43
2019-01-12T06:00:28.679Z,66.56
2019-01-12T06:02:59.177Z,66.95
2019-01-12T06:05:29.175Z,66.12
2019-01-12T06:07:59.314Z,66.14
2019-01-12T06:10:29.641Z,65.92
2019-01-12T06:12:59.599Z,66.09
2019-01-12T06:15:29.478Z,64.77
2019-01-12T06:17:59.388Z,66.18
2019-01-12T06:20:29.289Z,66.06
2019-01-12T06:22:59.183Z,65.73
2019-01-12T06:25:29.105Z,65.69
2019-01-12T06:27:59.016Z,65.60
2019-01-12T06:30:29.819Z,65.50
2019-01-12T06:32:59.725Z,65.81
2019-01-12T06:35:29.883Z,64.71
2019-01-12T06:37:59.785Z,65.01
2019-01-12T06:40:30.180Z,64.52
2019-01-12T06:43:00.088Z,64.12
2019-01-12T06:45:30.398Z,64.54
2019-01-12T06:48:00.309Z,63.87
2019-01-12T06:50:30.170Z,64.26
2019-01-12T06:53:00.066Z,63.89
2019-01-12T06:55:30.173Z,63.87
2019-01-12T06:58:00.295Z,62.83
2019-01-12T07:00:30.207Z,62.00
2019-01-12T07:03:00.134Z,62.59
2019-01-12T07:05:30.084Z,62.18
2019-01-12T07:07:59.971Z,61.96
2019-01-12T07:10:29.948Z,62.13
2019-01-12T07:13:00.039Z,62.35
2019-01-12T07:15:29.922Z,62.11
2019-01-12T07:18:00.038Z,62.78
2019-01-12T07:20:29.915Z,61.90
2019-01-12T07:22:59.810Z,62.25
2019-01-12T07:25:29.721Z,62.08
2019-01-12T07:27:59.809Z,62.74
2019-01-12T07:30:29.694Z,61.98
2019-01-12T07:32:59.746Z,61.80
2019-01-12T07:35:29.627Z,61.93
2019-01-12T07:37:59.717Z,63.09
2019-01-12T07:40:29.611Z,62.65
2019-01-12T07:42:59.567Z,63.17
2019-01-12T07:45:29.461Z,64.69
2019-01-12T07:47:59.406Z,65.10
2019-01-12T07:50:29.275Z,66.86
2019-01-12T07:52:59.169Z,65.86
2019-01-12T07:55:29.056Z,66.07
2019-01-12T07:57:58.934Z,67.15
2019-01-12T08:00:29.204Z,66.95
2019-01-12T08:02:59.079Z,66.75
2019-01-12T08:05:28.988Z,70.96
2019-01-12T08:07:58.874Z,69.48
2019-01-12T08:10:29.382Z,68.02
2019-01-12T08:12:59.356Z,67.23
2019-01-12T08:15:29.249Z,67.38
2019-01-12T08:17:59.489Z,67.25
2019-01-12T08:20:29.467Z,67.68
2019-01-12T08:22:59.488Z,69.73
2019-01-12T08:25:29.340Z,67.65
2019-01-12T08:27:59.231Z,67.16
2019-01-12T08:30:29.408Z,67.85
2019-01-12T08:32:59.237Z,68.00
2019-01-12T08:35:29.134Z,68.16
2019-01-12T08:37:59.007Z,68.01
2019-01-12T08:40:28.966Z,68.37
2019-01-12T08:42:58.902Z,68.39
2019-01-12T08:45:29.116Z,70.23
2019-01-12T08:47:59.072Z,71.05
2019-01-12T08:50:28.952Z,70.31
2019-01-12T08:52:59.114Z,70.08
2019-01-12T08:55:29.032Z,68.65
2019-01-12T08:57:59.041Z,68.02
2019-01-12T09:00:29.024Z,68.29
2019-01-12T09:02:59.238Z,72.29
2019-01-12T09:05:29.391Z,70.12
2019-01-12T09:07:59.259Z,70.89
2019-01-12T09:10:29.165Z,73.51
2019-01-12T09:12:59.069Z,74.14
2019-01-12T09:15:28.992Z,73.84
2019-01-12T09:17:58.981Z,73.11
2019-01-12T09:20:28.906Z,72.09
2019-01-12T09:22:59.027Z,72.09
2019-01-12T09:25:29.157Z,72.50
2019-01-12T09:27:59.353Z,74.56
2019-01-12T09:30:29.852Z,72.42
2019-01-12T09:33:00.364Z,72.35
2019-01-12T09:35:32.175Z,72.77
2019-01-12T09:38:02.092Z,72.48
2019-01-12T09:40:31.990Z,72.65
2019-01-12T09:43:01.866Z,72.67
2019-01-12T09:45:31.896Z,74.29
2019-01-12T09:48:01.770Z,72.65
2019-01-12T09:50:31.776Z,72.61
2019-01-12T09:53:01.879Z,73.16
2019-01-12T09:55:31.837Z,73.50
2019-01-12T09:58:01.812Z,73.63
2019-01-12T10:00:31.747Z,73.60
2019-01-12T10:03:01.712Z,73.17
2019-01-12T10:05:31.853Z,73.36
2019-01-12T10:08:01.712Z,75.08
2019-01-12T10:10:31.698Z,73.17
2019-01-12T10:13:01.810Z,72.92
2019-01-12T10:15:31.904Z,71.75
2019-01-12T10:18:01.877Z,73.64
2019-01-12T10:20:32.065Z,72.15
2019-01-12T10:23:01.991Z,71.88
2019-01-12T10:25:31.944Z,73.98
2019-01-12T10:28:02.074Z,73.96
2019-01-12T10:30:32.327Z,73.96
2019-01-12T10:33:02.421Z,72.05
2019-01-12T10:35:32.877Z,73.15
2019-01-12T10:38:03.148Z,72.31
2019-01-12T10:40:33.091Z,73.99
2019-01-12T10:43:02.984Z,72.67
2019-01-12T10:45:33.044Z,72.24
2019-01-12T10:48:03.036Z,71.42
2019-01-12T10:50:36.293Z,72.11
2019-01-12T10:53:07.118Z,72.04
2019-01-12T10:55:37.060Z,71.85
2019-01-12T10:58:11.291Z,74.36
2019-01-12T11:00:41.536Z,73.12
2019-01-12T11:03:11.576Z,73.93
2019-01-12T11:05:41.612Z,74.17
2019-01-12T11:08:11.624Z,73.14
2019-01-12T11:10:41.652Z,72.04
2019-01-12T11:13:11.638Z,73.00
2019-01-12T11:15:41.813Z,72.73
2019-01-12T11:18:11.717Z,71.84
2019-01-12T11:20:41.620Z,72.07
2019-01-12T11:23:12.020Z,71.40
2019-01-12T11:25:42.987Z,70.99
2019-01-12T11:28:13.490Z,70.35
2019-01-12T11:30:45.431Z,70.75
2019-01-12T11:33:15.320Z,70.66
2019-01-12T11:35:45.219Z,72.01
2019-01-12T11:38:15.428Z,73.64
2019-01-12T11:40:45.452Z,72.04
2019-01-12T11:43:15.644Z,76.50
2019-01-12T11:45:45.535Z,74.76
2019-01-12T11:48:15.630Z,72.90
2019-01-12T11:50:45.491Z,74.54
2019-01-12T11:53:15.393Z,73.40
2019-01-12T11:55:45.276Z,76.59
2019-01-12T11:58:15.617Z,74.13
2019-01-12T12:00:45.609Z,73.41
2019-01-12T12:03:15.599Z,71.16
2019-01-12T12:05:45.705Z,73.46
2019-01-12T12:08:16.552Z,75.15
2019-01-12T12:10:46.475Z,73.48
2019-01-12T12:13:16.580Z,72.56
2019-01-12T12:15:46.491Z,70.51
2019-01-12T12:18:16.718Z,69.85
2019-01-12T12:20:46.719Z,69.83
2019-01-12T12:23:16.695Z,70.57
2019-01-12T12:25:46.586Z,70.89
2019-01-12T12:28:16.508Z,73.47
2019-01-12T12:30:46.452Z,72.95
2019-01-12T12:33:16.326Z,73.61
2019-01-12T12:35:46.467Z,70.62
2019-01-12T12:38:16.838Z,69.19
2019-01-12T12:40:51.286Z,69.50
2019-01-12T12:43:24.579Z,68.81
2019-01-12T12:45:54.896Z,69.39
2019-01-12T12:48:25.588Z,69.83
2019-01-12T12:50:55.612Z,68.87
2019-01-12T12:53:25.863Z,67.57
2019-01-12T12:55:55.788Z,68.08
2019-01-12T12:58:25.978Z,67.20
2019-01-12T13:00:56.138Z,69.02
2019-01-12T13:03:26.316Z,71.53
2019-01-12T13:05:56.292Z,68.63
2019-01-12T13:08:26.181Z,67.41
2019-01-12T13:10:56.298Z,68.23
2019-01-12T13:13:26.381Z,67.59
2019-01-12T13:15:56.565Z,67.34
2019-01-12T13:18:26.484Z,68.09
2019-01-12T13:20:56.455Z,67.30
2019-01-12T13:23:26.568Z,67.60
2019-01-12T13:25:57.205Z,67.73
2019-01-12T13:28:27.187Z,66.62
2019-01-12T13:30:57.149Z,67.77
2019-01-12T13:33:27.229Z,69.64
2019-01-12T13:35:57.128Z,68.94
2019-01-12T13:38:27.084Z,66.55
2019-01-12T13:40:57.061Z,67.29
2019-01-12T13:43:27.025Z,67.57
2019-01-12T13:45:57.261Z,66.24
2019-01-12T13:48:28.012Z,67.30
2019-01-12T13:50:57.968Z,66.57
2019-01-12T13:53:27.868Z,68.21
2019-01-12T13:55:58.199Z,68.90
2019-01-12T13:58:28.405Z,68.00
2019-01-12T14:00:58.620Z,69.23
2019-01-12T14:03:28.691Z,68.28
2019-01-12T14:05:58.695Z,69.69
2019-01-12T14:08:28.700Z,68.29
2019-01-12T14:10:58.815Z,69.58
2019-01-12T14:13:28.835Z,68.69
2019-01-12T14:15:58.787Z,68.93
2019-01-12T14:18:28.768Z,69.85
2019-01-12T14:20:59.915Z,70.01
2019-01-12T14:23:30.415Z,70.13
2019-01-12T14:26:00.955Z,70.15
2019-01-12T14:28:32.733Z,70.04
2019-01-12T14:31:03.262Z,71.57
2019-01-12T14:33:33.650Z,76.22
2019-01-12T14:36:03.613Z,76.26
2019-01-12T14:38:33.997Z,75.89
2019-01-12T14:41:04.578Z,75.92
2019-01-12T14:43:34.546Z,75.04
2019-01-12T14:46:05.073Z,74.15
2019-01-12T14:48:35.236Z,71.96
2019-01-12T14:51:05.633Z,72.61
2019-01-12T14:53:35.593Z,76.94
2019-01-12T14:56:05.672Z,72.49
2019-01-12T14:58:35.633Z,73.69
2019-01-12T15:01:05.716Z,72.93
2019-01-12T15:03:35.619Z,71.90
2019-01-12T15:06:06.097Z,72.03
2019-01-12T15:08:36.083Z,71.93
2019-01-12T15:11:05.996Z,77.16
2019-01-12T15:13:35.943Z,74.83
2019-01-12T15:16:06.724Z,74.82
2019-01-12T15:18:36.607Z,75.27
2019-01-12T15:21:06.511Z,75.54
2019-01-12T15:23:36.488Z,76.07
2019-01-12T15:26:06.554Z,75.83
2019-01-12T15:28:36.695Z,74.70
2019-01-12T15:31:06.789Z,75.83
2019-01-12T15:33:37.488Z,75.93
2019-01-12T15:36:07.991Z,75.51
2019-01-12T15:38:38.058Z,73.83
2019-01-12T15:41:08.545Z,76.53
2019-01-12T15:43:38.466Z,79.31
2019-01-12T15:46:08.388Z,78.15
2019-01-12T15:48:38.254Z,76.29
2019-01-12T15:51:08.179Z,76.83
2019-01-12T15:53:38.166Z,77.37
2019-01-12T15:56:08.814Z,76.75
2019-01-12T15:58:39.375Z,75.57
2019-01-12T16:01:10.378Z,74.08
2019-01-12T16:03:40.798Z,76.27
2019-01-12T16:06:10.694Z,74.32
2019-01-12T16:08:40.790Z,75.18
2019-01-12T16:11:11.874Z,75.95
2019-01-12T16:13:42.510Z,75.91
2019-01-12T16:16:13.079Z,75.24
2019-01-12T16:18:43.490Z,78.16
2019-01-12T16:21:16.475Z,78.25
2019-01-12T16:23:47.225Z,76.46
2019-01-12T16:26:17.834Z,77.28
2019-01-12T16:28:47.952Z,74.26
2019-01-12T16:31:18.759Z,73.48
2019-01-12T16:33:49.107Z,75.23
2019-01-12T16:36:19.502Z,74.30
2019-01-12T16:38:49.750Z,79.15
2019-01-12T16:41:20.436Z,75.78
2019-01-12T16:43:50.988Z,74.48
2019-01-12T16:46:21.387Z,76.43
2019-01-12T16:48:51.713Z,76.54
2019-01-12T16:51:21.735Z,74.70
2019-01-12T16:53:53.110Z,78.52
2019-01-12T16:56:22.980Z,74.17
2019-01-12T16:58:52.861Z,78.29
2019-01-12T17:01:22.755Z,75.46
2019-01-12T17:03:52.725Z,78.24
2019-01-12T17:06:22.986Z,77.79
2019-01-12T17:08:53.226Z,78.97
2019-01-12T17:11:23.269Z,76.81
2019-01-12T17:13:53.485Z,79.36
2019-01-12T17:16:23.580Z,77.38
2019-01-12T17:18:53.656Z,75.71
2019-01-12T17:21:23.671Z,80.19
2019-01-12T17:23:53.660Z,77.14
2019-01-12T17:26:23.567Z,76.34
2019-01-12T17:28:53.536Z,78.81
2019-01-12T17:31:23.495Z,75.57
2019-01-12T17:33:53.686Z,77.06
2019-01-12T17:36:23.564Z,75.86
2019-01-12T17:38:53.499Z,74.86
2019-01-12T17:41:23.459Z,76.82
2019-01-12T17:43:53.362Z,75.10
2019-01-12T17:46:23.431Z,75.25
2019-01-12T17:48:53.568Z,74.19
2019-01-12T17:51:23.472Z,75.38
2019-01-12T17:53:53.375Z,77.39
2019-01-12T17:56:23.368Z,77.20
2019-01-12T17:58:53.843Z,76.51
2019-01-12T18:01:23.890Z,75.47
2019-01-12T18:03:53.829Z,76.09
2019-01-12T18:06:23.803Z,76.46
2019-01-12T18:08:53.864Z,75.69
2019-01-12T18:11:24.526Z,75.58
2019-01-12T18:13:55.498Z,75.22
2019-01-12T18:16:25.615Z,76.20
2019-01-12T18:18:59.151Z,76.51
2019-01-12T18:21:29.149Z,75.04
2019-01-12T18:23:59.170Z,76.32
2019-01-12T18:26:29.780Z,77.42
2019-01-12T18:28:59.670Z,75.91
2019-01-12T18:31:29.619Z,74.71
2019-01-12T18:33:59.645Z,73.69
2019-01-12T18:36:29.677Z,74.03
2019-01-12T18:39:00.791Z,74.92
2019-01-12T18:41:31.611Z,74.66
2019-01-12T18:44:01.545Z,75.66
2019-01-12T18:46:31.515Z,75.79
2019-01-12T18:49:01.926Z,77.53
2019-01-12T18:51:32.301Z,75.37
2019-01-12T18:54:02.241Z,76.70
2019-01-12T18:56:37.583Z,75.97
2019-01-12T18:59:09.291Z,77.02
2019-01-12T19:01:39.326Z,76.83
2019-01-12T19:04:10.548Z,74.66
2019-01-12T19:06:41.356Z,74.78
2019-01-12T19:09:11.325Z,73.87
2019-01-12T19:11:41.898Z,74.40
2019-01-12T19:14:13.348Z,76.33
2019-01-12T19:16:43.849Z,78.58
2019-01-12T19:19:14.043Z,76.27
2019-01-12T19:21:45.519Z,79.63
2019-01-12T19:24:15.424Z,75.07
2019-01-12T19:26:46.994Z,76.33
2019-01-12T19:29:17.997Z,75.56
2019-01-12T19:31:49.320Z,74.50
2019-01-12T19:34:20.151Z,77.06
2019-01-12T19:36:50.162Z,76.64
2019-01-12T19:39:20.097Z,75.09
2019-01-12T19:41:50.075Z,75.05
2019-01-12T19:44:20.091Z,75.19
2019-01-12T19:46:50.699Z,73.72
2019-01-12T19:49:20.945Z,73.43
2019-01-12T19:51:51.136Z,74.80
2019-01-12T19:54:21.072Z,77.89
2019-01-12T19:56:51.320Z,78.45
2019-01-12T19:59:21.460Z,76.22
2019-01-12T20:01:51.456Z,75.26
2019-01-12T20:04:21.369Z,74.75
2019-01-12T20:06:51.285Z,74.14
2019-01-12T20:09:21.569Z,73.15
2019-01-12T20:11:51.569Z,73.29
2019-01-12T20:14:22.570Z,74.06
2019-01-12T20:16:53.083Z,74.49
2019-01-12T20:19:23.056Z,74.07
2019-01-12T20:21:53.081Z,76.04
2019-01-12T20:24:22.987Z,76.12
2019-01-12T20:26:54.650Z,75.09
2019-01-12T20:29:24.995Z,74.55
2019-01-12T20:32:15.262Z,76.49
2019-01-12T20:35:20.535Z,75.66
2019-01-12T20:38:57.081Z,76.83
2019-01-12T20:41:59.749Z,74.45
2019-01-12T20:45:33.743Z,72.98
2019-01-12T20:48:49.610Z,73.39
2019-01-12T20:52:18.520Z,73.91
2019-01-12T20:55:27.214Z,75.77
2019-01-12T20:58:46.958Z,76.73
2019-01-12T21:02:14.671Z,80.62
2019-01-12T21:05:15.311Z,74.56
2019-01-12T21:08:44.515Z,73.38
2019-01-12T21:12:26.125Z,75.67
2019-01-12T21:15:10.648Z,72.77
2019-01-12T21:17:43.023Z,73.90
2019-01-12T21:20:13.441Z,74.95
2019-01-12T21:22:44.216Z,74.22
2019-01-12T21:25:15.806Z,73.49
2019-01-12T21:27:46.686Z,72.88
2019-01-12T21:30:18.933Z,77.10
2019-01-12T21:32:49.716Z,74.09
2019-01-12T21:35:21.008Z,74.09
2019-01-12T21:37:53.027Z,73.02
2019-01-12T21:40:23.032Z,73.42
2019-01-12T21:42:54.420Z,73.43
2019-01-12T21:45:26.405Z,73.26
2019-01-12T21:47:58.298Z,73.15
2019-01-12T21:50:33.676Z,74.13
2019-01-12T21:53:05.280Z,73.43
2019-01-12T21:55:36.429Z,74.29
2019-01-12T21:58:07.850Z,74.19
2019-01-12T22:00:39.049Z,73.20
2019-01-12T22:03:09.302Z,75.56
2019-01-12T22:05:40.364Z,75.36
2019-01-12T22:08:10.922Z,74.13
2019-01-12T22:10:42.199Z,74.98
2019-01-12T22:13:14.381Z,75.80
2019-01-12T22:15:45.586Z,74.85
2019-01-12T22:18:16.595Z,75.51
2019-01-12T22:20:47.668Z,74.45
2019-01-12T22:23:18.895Z,73.83
2019-01-12T22:25:49.403Z,75.21
2019-01-12T22:28:22.045Z,74.01
2019-01-12T22:30:52.280Z,73.95
2019-01-12T22:33:22.456Z,74.65
2019-01-12T22:35:52.348Z,81.46
2019-01-12T22:38:22.230Z,77.66
2019-01-12T22:40:52.139Z,81.19
2019-01-12T22:43:22.152Z,78.20
2019-01-12T22:45:52.165Z,77.09
2019-01-12T22:48:23.282Z,74.91
2019-01-12T22:50:54.198Z,74.03
2019-01-12T22:53:26.634Z,73.12
2019-01-12T22:55:56.577Z,73.51
2019-01-12T22:58:27.878Z,74.91
2019-01-12T23:01:56.794Z,73.53
2019-01-12T23:04:29.693Z,75.11
2019-01-12T23:07:00.626Z,75.85
2019-01-12T23:09:31.938Z,75.68
2019-01-12T23:12:02.732Z,73.63
2019-01-12T23:14:33.965Z,75.36
2019-01-12T23:17:05.138Z,73.95
2019-01-12T23:19:35.287Z,74.10
2019-01-12T23:22:06.943Z,73.29
2019-01-12T23:24:36.997Z,75.99
2019-01-12T23:27:08.531Z,74.34
2019-01-12T23:29:38.434Z,73.00
2019-01-12T23:32:08.803Z,77.96
2019-01-12T23:34:39.795Z,73.74
2019-01-12T23:37:10.445Z,74.02
2019-01-12T23:39:41.623Z,71.70
2019-01-12T23:42:11.786Z,74.82
2019-01-12T23:44:43.259Z,73.87
2019-01-12T23:47:13.405Z,72.98
2019-01-12T23:49:45.666Z,72.75
2019-01-12T23:52:16.228Z,73.90
2019-01-12T23:54:48.997Z,72.94
2019-01-12T23:57:19.958Z,71.64
2019-01-12T23:59:51.602Z,71.32
